Time;durP1;ratioP1;P1;durP2;ratioP2;P2;SDS_P1;SDS_P2;PMS_P1;PMS_P2;Temp;Humidity;BMP_temperature;BMP_pressure;BME280_temperature;BME280_humidity;BME280_pressure;Samples;Min_cycle;Max_cycle;Signal;HPM_P1;HPM_P2
2024/01/23 00:01:35;;;;;;;17.20;5.20;;;6.00;99.90;;;;;;5024319;28;20463;-56
2024/01/23 00:04:01;;;;;;;21.37;4.63;;;6.00;99.90;;;;;;5027571;28;20497;-54
2024/01/23 00:06:28;;;;;;;13.00;5.00;;;6.00;99.90;;;;;;5034455;28;20478;-55
2024/01/23 00:08:55;;;;;;;10.57;3.83;;;6.00;99.90;;;;;;5037322;28;20458;-54
2024/01/23 00:11:22;;;;;;;19.50;4.57;;;6.10;99.90;;;;;;5037367;28;20533;-53
2024/01/23 00:13:49;;;;;;;11.93;4.70;;;6.20;99.90;;;;;;5035646;28;20953;-56
2024/01/23 00:16:16;;;;;;;14.33;3.90;;;6.20;99.90;;;;;;5037396;28;20431;-54
2024/01/23 00:18:43;;;;;;;15.17;3.90;;;6.20;99.90;;;;;;5038274;28;20613;-54
2024/01/23 00:21:10;;;;;;;18.60;4.10;;;6.30;99.90;;;;;;5037880;28;20490;-55
2024/01/23 00:23:37;;;;;;;10.50;3.20;;;6.20;99.90;;;;;;5038246;28;20521;-54
2024/01/23 00:26:03;;;;;;;7.63;3.03;;;6.10;99.90;;;;;;5034972;28;20467;-54
2024/01/23 00:28:30;;;;;;;15.43;3.43;;;6.00;99.90;;;;;;5039500;28;20443;-54
2024/01/23 00:30:57;;;;;;;12.43;4.23;;;5.90;99.90;;;;;;5056248;28;20493;-60
2024/01/23 00:33:24;;;;;;;10.70;3.40;;;5.70;99.90;;;;;;5056570;28;20439;-54
2024/01/23 00:35:51;;;;;;;12.10;3.10;;;5.60;99.90;;;;;;5052116;28;20450;-58
2024/01/23 00:38:18;;;;;;;4.67;2.43;;;5.50;99.90;;;;;;5052128;28;20443;-55
2024/01/23 00:40:44;;;;;;;4.40;2.70;;;5.50;99.90;;;;;;5054459;28;20505;-54
2024/01/23 00:43:12;;;;;;;5.47;2.60;;;5.40;99.90;;;;;;5028235;28;20508;-57
2024/01/23 00:45:39;;;;;;;6.50;2.87;;;5.40;99.90;;;;;;5032688;28;20828;-53
2024/01/23 00:48:06;;;;;;;5.50;2.60;;;5.30;99.90;;;;;;5034905;28;20497;-54
2024/01/23 00:50:34;;;;;;;7.70;2.93;;;5.30;99.90;;;;;;5033996;28;20549;-55
2024/01/23 00:53:01;;;;;;;8.87;3.33;;;5.20;99.90;;;;;;5032897;28;20469;-54
2024/01/23 00:55:27;;;;;;;9.00;2.17;;;5.20;99.90;;;;;;5027443;28;20450;-56
2024/01/23 00:57:54;;;;;;;4.30;2.57;;;5.20;99.90;;;;;;5032806;28;20459;-54
2024/01/23 01:00:21;;;;;;;7.70;2.37;;;5.20;99.90;;;;;;5032638;28;20466;-54
2024/01/23 01:02:48;;;;;;;5.07;2.13;;;5.20;99.90;;;;;;5033210;28;20558;-54
2024/01/23 01:05:15;;;;;;;6.93;2.00;;;5.20;99.90;;;;;;5035098;28;20454;-54
2024/01/23 01:07:44;;;;;;;6.30;1.70;;;5.10;99.90;;;;;;5034968;28;20482;-55
2024/01/23 01:10:11;;;;;;;7.00;2.17;;;5.00;99.90;;;;;;5034162;28;20463;-53
2024/01/23 01:12:37;;;;;;;8.50;2.97;;;5.00;99.90;;;;;;5027536;28;20561;-56
2024/01/23 01:15:04;;;;;;;4.63;2.37;;;4.90;95.80;;;;;;5042534;28;20501;-58
2024/01/23 01:17:32;;;;;;;10.30;2.30;;;4.80;85.30;;;;;;5041282;28;20427;-54
2024/01/23 01:19:58;;;;;;;3.30;1.87;;;4.80;81.50;;;;;;5042259;28;20477;-62
2024/01/23 01:22:25;;;;;;;5.97;2.20;;;4.80;81.10;;;;;;5035483;28;20498;-61
2024/01/23 01:24:53;;;;;;;5.03;2.20;;;4.70;73.10;;;;;;5029121;28;20463;-55
2024/01/23 01:27:19;;;;;;;5.00;1.90;;;4.70;72.50;;;;;;5031319;28;20486;-55
2024/01/23 01:29:46;;;;;;;4.30;1.60;;;4.70;69.90;;;;;;5033189;28;20509;-55
2024/01/23 01:32:13;;;;;;;4.83;2.03;;;4.70;65.60;;;;;;5034507;28;20443;-54
2024/01/23 01:34:39;;;;;;;3.43;1.87;;;4.70;63.50;;;;;;5029885;28;20928;-55
2024/01/23 01:37:07;;;;;;;8.70;2.10;;;4.70;61.40;;;;;;5033608;28;20513;-56
2024/01/23 01:39:33;;;;;;;3.23;1.80;;;4.70;58.90;;;;;;5033648;28;20540;-55
2024/01/23 01:42:01;;;;;;;5.27;1.83;;;4.70;56.60;;;;;;5033763;28;20493;-54
2024/01/23 01:44:29;;;;;;;7.00;2.13;;;4.70;57.80;;;;;;5033581;28;20447;-54
2024/01/23 01:46:55;;;;;;;2.50;1.70;;;4.60;57.70;;;;;;5027759;28;20510;-55
2024/01/23 01:49:22;;;;;;;5.70;2.10;;;4.50;58.00;;;;;;5023482;28;20475;-54
2024/01/23 01:51:49;;;;;;;8.23;2.10;;;4.40;58.20;;;;;;5028112;28;20814;-54
2024/01/23 01:54:16;;;;;;;8.73;2.30;;;4.30;52.20;;;;;;5033363;28;20497;-55
2024/01/23 01:56:44;;;;;;;9.40;3.07;;;4.40;45.00;;;;;;5033442;28;20447;-54
2024/01/23 01:59:12;;;;;;;6.03;2.20;;;4.40;40.70;;;;;;5032829;28;20516;-55
2024/01/23 02:01:40;;;;;;;7.80;3.10;;;4.50;43.50;;;;;;5033114;28;20454;-57
2024/01/23 02:04:07;;;;;;;6.00;2.80;;;4.50;44.50;;;;;;5030417;28;20490;-56
2024/01/23 02:06:35;;;;;;;7.13;2.60;;;4.50;50.00;;;;;;5022690;28;20466;-53
2024/01/23 02:09:02;;;;;;;10.17;2.80;;;4.50;55.00;;;;;;5033073;28;20830;-58
2024/01/23 02:11:29;;;;;;;9.77;3.07;;;4.40;57.30;;;;;;5032709;28;20461;-58
2024/01/23 02:13:56;;;;;;;8.30;3.40;;;4.50;56.10;;;;;;5032540;28;21002;-57
2024/01/23 02:16:24;;;;;;;9.47;3.23;;;4.50;60.10;;;;;;5032038;28;20443;-58
2024/01/23 02:18:51;;;;;;;5.20;2.80;;;4.60;63.20;;;;;;5026858;28;20450;-59
2024/01/23 02:21:17;;;;;;;9.40;2.20;;;4.70;72.00;;;;;;5030723;28;20462;-60
2024/01/23 02:23:45;;;;;;;6.50;2.37;;;4.60;77.80;;;;;;5029026;28;20442;-57
2024/01/23 02:26:15;;;;;;;7.10;2.13;;;4.70;81.20;;;;;;5031067;28;20497;-58
2024/01/23 02:28:41;;;;;;;6.07;2.97;;;4.70;83.90;;;;;;5032575;28;20490;-57
2024/01/23 02:31:08;;;;;;;2.47;1.70;;;4.70;88.80;;;;;;5031767;28;20450;-56
2024/01/23 02:33:35;;;;;;;9.30;2.90;;;4.80;94.70;;;;;;5032352;28;20439;-55
2024/01/23 02:36:01;;;;;;;5.60;2.10;;;4.90;99.90;;;;;;5030367;28;20455;-55
2024/01/23 02:38:28;;;;;;;5.47;2.53;;;4.90;99.90;;;;;;5033465;28;20438;-55
2024/01/23 02:40:57;;;;;;;6.27;1.80;;;5.00;99.90;;;;;;5031077;28;20964;-55
2024/01/23 02:43:23;;;;;;;6.07;2.47;;;5.00;99.90;;;;;;5028072;28;20459;-55
2024/01/23 02:45:50;;;;;;;8.47;3.30;;;5.00;99.90;;;;;;5033663;28;20450;-57
2024/01/23 02:48:16;;;;;;;11.97;3.17;;;5.00;99.90;;;;;;5030962;28;20478;-54
2024/01/23 02:50:43;;;;;;;7.83;2.30;;;5.10;99.90;;;;;;5030329;28;20529;-54
2024/01/23 02:53:09;;;;;;;9.80;2.73;;;5.10;99.90;;;;;;5027436;28;20463;-54
2024/01/23 02:55:36;;;;;;;9.10;2.70;;;5.10;99.90;;;;;;5030202;28;20475;-54
2024/01/23 02:58:04;;;;;;;5.23;2.37;;;5.00;99.90;;;;;;5030460;28;20435;-54
2024/01/23 03:00:32;;;;;;;5.80;2.80;;;5.10;99.90;;;;;;5029185;28;20537;-54
2024/01/23 03:02:59;;;;;;;6.63;3.40;;;5.00;99.90;;;;;;5022922;28;20451;-54
2024/01/23 03:05:26;;;;;;;9.07;3.53;;;5.00;99.90;;;;;;5031090;28;20442;-53
2024/01/23 03:07:53;;;;;;;9.70;3.50;;;5.00;99.90;;;;;;5031171;28;20475;-53
2024/01/23 03:10:20;;;;;;;10.47;3.10;;;5.00;99.90;;;;;;5032792;28;20510;-55
2024/01/23 03:12:47;;;;;;;8.80;3.23;;;5.00;99.90;;;;;;5030794;28;20521;-55
2024/01/23 03:15:15;;;;;;;6.50;2.70;;;5.00;99.90;;;;;;5030548;28;20477;-53
2024/01/23 03:17:41;;;;;;;9.80;2.80;;;5.00;99.90;;;;;;5028685;28;22241;-53
2024/01/23 03:20:09;;;;;;;5.03;2.47;;;5.00;99.90;;;;;;5024415;28;20537;-55
2024/01/23 03:22:36;;;;;;;9.20;3.00;;;5.00;99.90;;;;;;5031293;28;20443;-53
2024/01/23 03:25:03;;;;;;;3.43;2.00;;;5.00;99.90;;;;;;5031824;28;20502;-55
2024/01/23 03:27:29;;;;;;;7.40;2.63;;;5.00;99.90;;;;;;5029087;28;20490;-54
2024/01/23 03:29:55;;;;;;;10.30;2.90;;;5.00;99.90;;;;;;5033034;28;20467;-55
2024/01/23 03:32:23;;;;;;;7.20;2.70;;;5.00;99.90;;;;;;5034924;28;20509;-55
2024/01/23 03:34:50;;;;;;;10.40;2.70;;;4.90;99.90;;;;;;5030746;28;20200;-54
2024/01/23 03:37:16;;;;;;;5.70;2.30;;;5.00;99.90;;;;;;5029698;28;20454;-55
2024/01/23 03:39:43;;;;;;;7.60;2.77;;;5.00;99.90;;;;;;5039503;28;20458;-55
2024/01/23 03:42:10;;;;;;;8.40;2.90;;;5.00;99.90;;;;;;5036216;28;20443;-56
2024/01/23 03:44:37;;;;;;;11.00;3.20;;;5.10;99.90;;;;;;5031616;28;20490;-56
2024/01/23 03:47:03;;;;;;;6.47;1.90;;;5.00;99.90;;;;;;5031101;28;20508;-56
2024/01/23 03:49:31;;;;;;;2.70;1.90;;;5.00;99.90;;;;;;5032917;28;20524;-56
2024/01/23 03:51:58;;;;;;;4.53;2.10;;;5.00;99.90;;;;;;5036905;28;20443;-56
2024/01/23 03:54:24;;;;;;;5.77;2.33;;;5.00;99.90;;;;;;5034321;28;20439;-55
2024/01/23 03:56:51;;;;;;;5.97;2.53;;;5.10;99.90;;;;;;5036656;28;20478;-56
2024/01/23 03:59:18;;;;;;;7.73;2.10;;;5.00;99.90;;;;;;5035131;28;20482;-56
2024/01/23 04:01:45;;;;;;;4.20;1.73;;;5.00;99.90;;;;;;5032973;28;20520;-56
2024/01/23 04:04:11;;;;;;;5.43;1.83;;;5.10;99.90;;;;;;5027256;28;20979;-56
2024/01/23 04:06:39;;;;;;;3.30;2.20;;;5.00;99.90;;;;;;5037354;28;20446;-55
2024/01/23 04:09:06;;;;;;;4.87;2.03;;;4.90;99.90;;;;;;5034424;28;20571;-55
2024/01/23 04:11:33;;;;;;;2.23;1.80;;;4.90;99.90;;;;;;5034268;28;20447;-55
2024/01/23 04:13:59;;;;;;;9.10;2.80;;;4.90;99.90;;;;;;5034020;28;20442;-55
2024/01/23 04:16:26;;;;;;;3.80;2.47;;;4.80;99.90;;;;;;5033962;28;20443;-56
2024/01/23 04:18:54;;;;;;;5.20;2.10;;;4.80;99.90;;;;;;5032917;28;20520;-56
2024/01/23 04:21:22;;;;;;;6.90;2.47;;;4.90;99.90;;;;;;5031656;28;20458;-56
2024/01/23 04:23:50;;;;;;;9.83;2.43;;;5.00;99.90;;;;;;5027110;28;20950;-56
2024/01/23 04:26:18;;;;;;;8.50;2.50;;;5.00;99.90;;;;;;5034826;28;20537;-56
2024/01/23 04:28:46;;;;;;;6.63;2.40;;;5.10;99.90;;;;;;5033824;28;20502;-55
2024/01/23 04:31:13;;;;;;;8.97;2.50;;;5.10;99.90;;;;;;5034691;28;20530;-56
2024/01/23 04:33:39;;;;;;;5.93;2.37;;;5.10;99.90;;;;;;5044513;28;20462;-56
2024/01/23 04:36:06;;;;;;;3.80;1.80;;;5.10;99.90;;;;;;5054455;28;20454;-57
2024/01/23 04:38:33;;;;;;;4.17;2.23;;;5.10;99.90;;;;;;5054442;28;20431;-56
2024/01/23 04:41:01;;;;;;;6.40;2.57;;;5.10;99.90;;;;;;5048985;28;20478;-56
2024/01/23 04:43:27;;;;;;;4.43;1.90;;;5.10;99.90;;;;;;5045134;28;20451;-57
2024/01/23 04:45:54;;;;;;;6.53;2.53;;;5.10;99.90;;;;;;5041247;28;20929;-71
2024/01/23 04:48:20;;;;;;;5.93;2.37;;;5.00;99.90;;;;;;5034125;28;20490;-55
2024/01/23 04:50:47;;;;;;;5.93;2.20;;;5.10;99.90;;;;;;5031441;28;21068;-56
2024/01/23 04:53:14;;;;;;;2.70;1.47;;;5.10;99.90;;;;;;5033773;28;20435;-58
2024/01/23 04:55:40;;;;;;;6.37;2.23;;;5.10;99.90;;;;;;5043766;28;20466;-54
2024/01/23 04:58:08;;;;;;;4.70;2.00;;;5.10;99.90;;;;;;5033690;28;20466;-60
2024/01/23 05:00:35;;;;;;;6.17;2.20;;;5.10;99.90;;;;;;5027704;28;20842;-56
2024/01/23 05:03:02;;;;;;;2.93;1.70;;;5.10;99.90;;;;;;5033270;28;20442;-55
2024/01/23 05:05:29;;;;;;;4.63;2.43;;;5.10;99.90;;;;;;5032868;28;20472;-56
2024/01/23 05:07:55;;;;;;;8.67;2.47;;;5.00;99.90;;;;;;5033484;28;20479;-55
2024/01/23 05:10:22;;;;;;;5.57;2.47;;;5.00;99.90;;;;;;5033297;28;20478;-55
2024/01/23 05:12:49;;;;;;;5.47;1.80;;;4.90;99.90;;;;;;5032376;28;20482;-55
2024/01/23 05:15:17;;;;;;;4.93;2.37;;;5.00;99.90;;;;;;5033397;28;20548;-56
2024/01/23 05:17:43;;;;;;;4.83;2.27;;;5.00;99.90;;;;;;5025622;28;20487;-56
2024/01/23 05:20:11;;;;;;;5.70;2.17;;;4.90;99.90;;;;;;5033042;28;20831;-56
2024/01/23 05:22:37;;;;;;;8.63;2.70;;;4.90;99.90;;;;;;5039007;28;20473;-58
2024/01/23 05:25:04;;;;;;;4.43;2.10;;;4.90;99.90;;;;;;5054157;28;20458;-57
2024/01/23 05:27:31;;;;;;;4.67;2.00;;;4.90;99.90;;;;;;5055384;28;20451;-57
2024/01/23 05:29:57;;;;;;;2.67;1.70;;;4.80;99.90;;;;;;5054217;28;20479;-58
2024/01/23 05:32:25;;;;;;;7.10;1.90;;;4.80;99.90;;;;;;5053195;28;20455;-58
2024/01/23 05:34:52;;;;;;;11.63;2.40;;;4.80;99.90;;;;;;5038914;28;20459;-57
2024/01/23 05:37:19;;;;;;;5.90;2.37;;;4.80;99.90;;;;;;5033450;28;20443;-57
2024/01/23 05:39:46;;;;;;;5.27;2.30;;;4.80;99.90;;;;;;5032515;28;21119;-57
2024/01/23 05:42:13;;;;;;;4.60;2.07;;;4.80;99.90;;;;;;5030635;28;20516;-57
2024/01/23 05:44:39;;;;;;;6.33;2.63;;;4.70;99.90;;;;;;5028699;28;20459;-57
2024/01/23 05:47:06;;;;;;;6.57;2.10;;;4.70;99.90;;;;;;5033301;28;20863;-56
2024/01/23 05:49:34;;;;;;;3.23;1.90;;;4.70;99.90;;;;;;5031831;28;20899;-56
2024/01/23 05:52:00;;;;;;;4.37;1.80;;;4.80;99.90;;;;;;5030175;28;20552;-57
2024/01/23 05:54:27;;;;;;;3.93;1.90;;;4.70;99.90;;;;;;5032120;28;20450;-57
2024/01/23 05:56:53;;;;;;;4.33;2.30;;;4.70;99.90;;;;;;5030710;28;20443;-56
2024/01/23 05:59:20;;;;;;;9.63;2.53;;;4.60;99.90;;;;;;5030416;28;20490;-57
2024/01/23 06:01:47;;;;;;;7.20;2.23;;;4.60;99.90;;;;;;5029259;28;20462;-56
2024/01/23 06:04:13;;;;;;;12.13;2.53;;;4.60;99.90;;;;;;5024856;28;20521;-58
2024/01/23 06:06:42;;;;;;;7.80;2.00;;;4.70;99.90;;;;;;5033490;28;20443;-56
2024/01/23 06:09:10;;;;;;;7.90;2.37;;;4.60;99.90;;;;;;5031802;28;20572;-56
2024/01/23 06:11:36;;;;;;;8.50;2.53;;;4.60;99.90;;;;;;5032424;28;20458;-56
2024/01/23 06:14:03;;;;;;;9.87;2.57;;;4.70;99.90;;;;;;5030838;28;20442;-57
2024/01/23 06:16:30;;;;;;;8.47;2.87;;;4.70;99.90;;;;;;5031880;28;20813;-57
2024/01/23 06:18:56;;;;;;;9.67;2.43;;;4.70;99.90;;;;;;5031895;28;20466;-60
2024/01/23 06:21:23;;;;;;;7.80;3.20;;;4.70;99.90;;;;;;5027401;28;20513;-57
2024/01/23 06:23:51;;;;;;;11.43;2.90;;;4.80;99.90;;;;;;5032774;28;20435;-56
2024/01/23 06:26:18;;;;;;;9.67;2.90;;;4.80;99.90;;;;;;5033079;28;20497;-57
2024/01/23 06:28:45;;;;;;;6.60;2.70;;;4.80;99.90;;;;;;5031732;28;20479;-57
2024/01/23 06:31:12;;;;;;;6.70;2.07;;;4.70;99.90;;;;;;5027116;28;20475;-57
2024/01/23 06:33:38;;;;;;;7.53;2.80;;;4.70;99.90;;;;;;5032090;28;20525;-57
2024/01/23 06:36:06;;;;;;;7.93;2.67;;;4.60;99.90;;;;;;5031121;28;20853;-57
2024/01/23 06:38:33;;;;;;;10.73;2.50;;;4.60;99.90;;;;;;5032181;28;20498;-57
2024/01/23 06:41:01;;;;;;;7.47;2.70;;;4.60;99.90;;;;;;5031364;28;20509;-58
2024/01/23 06:43:27;;;;;;;7.83;3.13;;;4.60;99.90;;;;;;5030538;28;20549;-57
2024/01/23 06:45:55;;;;;;;9.07;2.83;;;4.60;99.90;;;;;;5021969;28;20462;-56
2024/01/23 06:48:22;;;;;;;5.07;2.63;;;4.60;99.90;;;;;;5022098;28;20479;-56
2024/01/23 06:50:49;;;;;;;10.17;3.80;;;4.70;99.90;;;;;;5030797;28;20474;-57
2024/01/23 06:53:15;;;;;;;8.27;3.37;;;4.70;99.90;;;;;;5029161;28;20463;-57
2024/01/23 06:55:42;;;;;;;7.13;2.73;;;4.70;99.90;;;;;;5031447;28;20902;-56
2024/01/23 06:58:10;;;;;;;13.07;3.20;;;4.70;99.90;;;;;;5025727;28;20463;-56
2024/01/23 07:00:37;;;;;;;9.60;3.20;;;4.70;99.90;;;;;;5031629;28;20466;-58
2024/01/23 07:03:04;;;;;;;12.27;3.20;;;4.70;99.90;;;;;;5026475;28;20538;-57
2024/01/23 07:05:30;;;;;;;8.83;3.13;;;4.80;99.90;;;;;;5026102;28;20458;-57
2024/01/23 07:07:57;;;;;;;6.50;3.03;;;4.80;99.90;;;;;;5029848;28;20492;-56
2024/01/23 07:10:23;;;;;;;12.73;3.20;;;4.80;99.90;;;;;;5034187;28;20458;-58
2024/01/23 07:12:50;;;;;;;16.73;3.90;;;4.80;99.90;;;;;;5029502;28;20478;-57
2024/01/23 07:15:18;;;;;;;6.30;2.77;;;4.90;99.90;;;;;;5032291;28;20521;-57
2024/01/23 07:17:45;;;;;;;8.20;3.30;;;4.90;99.90;;;;;;5035751;28;20495;-57
2024/01/23 07:20:11;;;;;;;11.43;3.17;;;4.90;99.90;;;;;;5030781;28;20486;-57
2024/01/23 07:22:38;;;;;;;18.63;3.80;;;4.90;99.90;;;;;;5030767;28;20960;-57
2024/01/23 07:25:05;;;;;;;11.57;3.43;;;5.00;99.90;;;;;;5035886;28;20450;-57
2024/01/23 07:27:32;;;;;;;11.47;3.40;;;5.00;99.90;;;;;;5035782;28;20489;-55
2024/01/23 07:29:59;;;;;;;15.93;3.43;;;5.10;99.90;;;;;;5031730;28;20495;-54
2024/01/23 07:32:27;;;;;;;4.70;2.60;;;5.00;99.90;;;;;;5033216;28;20505;-55
2024/01/23 07:34:54;;;;;;;16.50;4.50;;;5.00;99.90;;;;;;5035311;28;20500;-56
2024/01/23 07:37:20;;;;;;;12.90;4.60;;;5.00;99.90;;;;;;5029683;28;20573;-54
2024/01/23 07:39:49;;;;;;;9.30;3.73;;;5.10;99.90;;;;;;5034258;28;20513;-57
2024/01/23 07:42:15;;;;;;;13.50;4.00;;;5.10;99.90;;;;;;5031203;28;20463;-55
2024/01/23 07:44:43;;;;;;;13.50;3.93;;;5.20;99.90;;;;;;5031144;28;20470;-56
2024/01/23 07:47:10;;;;;;;12.60;3.80;;;5.20;99.90;;;;;;5024365;28;20847;-56
2024/01/23 07:49:38;;;;;;;13.63;3.40;;;5.30;99.90;;;;;;5032718;28;20488;-55
2024/01/23 07:52:06;;;;;;;13.03;3.80;;;5.30;99.90;;;;;;5035429;28;20447;-56
2024/01/23 07:54:33;;;;;;;18.37;4.63;;;5.30;99.90;;;;;;5029928;28;20463;-56
2024/01/23 07:56:59;;;;;;;13.70;4.03;;;5.30;99.90;;;;;;5035483;28;20439;-56
2024/01/23 07:59:26;;;;;;;9.73;3.03;;;5.30;99.90;;;;;;5030095;28;20478;-55
2024/01/23 08:01:53;;;;;;;11.10;3.00;;;5.20;99.90;;;;;;5030782;28;20490;-55
2024/01/23 08:04:19;;;;;;;14.23;3.30;;;5.20;99.90;;;;;;5025694;28;21018;-56
2024/01/23 08:06:47;;;;;;;8.20;3.13;;;5.30;99.90;;;;;;5031204;28;21014;-56
2024/01/23 08:09:14;;;;;;;13.87;3.13;;;5.40;99.90;;;;;;5030879;28;20530;-58
2024/01/23 08:11:41;;;;;;;9.23;2.90;;;5.40;99.90;;;;;;5033131;28;20485;-57
2024/01/23 08:14:08;;;;;;;14.53;3.63;;;5.50;99.90;;;;;;5035599;28;20449;-56
2024/01/23 08:16:34;;;;;;;10.83;3.10;;;5.60;99.90;;;;;;5033484;28;20509;-58
2024/01/23 08:19:02;;;;;;;11.20;3.50;;;5.70;74.50;;;;;;5032928;28;20585;-55
2024/01/23 08:21:29;;;;;;;12.33;3.50;;;5.70;22.60;;;;;;5026739;28;20605;-56
2024/01/23 08:23:57;;;;;;;9.10;3.67;;;5.70;21.80;;;;;;5029608;28;20574;-57
2024/01/23 08:26:23;;;;;;;10.80;3.50;;;5.70;21.20;;;;;;5034004;28;20462;-57
2024/01/23 08:28:50;;;;;;;17.97;3.60;;;5.70;24.70;;;;;;5031040;28;20513;-56
2024/01/23 08:31:16;;;;;;;12.13;3.20;;;5.70;27.90;;;;;;5031213;28;20566;-55
2024/01/23 08:33:43;;;;;;;8.03;2.83;;;5.80;31.00;;;;;;5024977;28;20471;-57
2024/01/23 08:36:10;;;;;;;8.97;2.90;;;5.80;29.70;;;;;;5032721;28;20467;-57
2024/01/23 08:38:37;;;;;;;15.43;5.47;;;5.70;28.20;;;;;;5033511;28;20462;-60
2024/01/23 08:41:05;;;;;;;12.07;3.73;;;5.80;32.90;;;;;;5032015;28;20506;-58
2024/01/23 08:43:32;;;;;;;10.97;3.20;;;5.80;31.10;;;;;;5028787;28;20519;-57
2024/01/23 08:45:59;;;;;;;13.83;3.50;;;5.80;31.20;;;;;;5028625;28;20470;-58
2024/01/23 08:48:28;;;;;;;12.20;3.70;;;5.80;31.20;;;;;;5033147;28;20489;-57
2024/01/23 08:50:54;;;;;;;14.60;4.03;;;5.80;33.50;;;;;;5028795;28;20474;-58
2024/01/23 08:53:21;;;;;;;13.10;3.37;;;5.90;32.30;;;;;;5031498;28;20509;-58
2024/01/23 08:55:47;;;;;;;15.17;4.77;;;5.90;38.00;;;;;;5031862;28;20463;-62
2024/01/23 08:58:18;;;;;;;14.27;4.20;;;5.90;40.20;;;;;;5025982;28;20513;-59
2024/01/23 09:00:44;;;;;;;35.40;3.93;;;5.90;39.90;;;;;;5029267;28;20471;-58
2024/01/23 09:03:11;;;;;;;13.70;3.77;;;5.90;37.30;;;;;;5026899;28;20509;-58
2024/01/23 09:05:37;;;;;;;10.97;3.83;;;5.90;40.20;;;;;;5026320;28;20556;-59
2024/01/23 09:08:05;;;;;;;12.83;3.60;;;6.00;41.60;;;;;;5030131;28;20455;-60
2024/01/23 09:10:32;;;;;;;15.33;4.70;;;5.90;41.60;;;;;;5029257;28;20908;-58
2024/01/23 09:12:58;;;;;;;17.77;4.67;;;6.00;43.90;;;;;;5024277;28;20467;-58
2024/01/23 09:15:26;;;;;;;17.17;4.70;;;6.00;45.70;;;;;;5026580;28;20463;-59
2024/01/23 09:17:53;;;;;;;17.50;4.30;;;6.10;46.30;;;;;;5026312;28;20517;-58
2024/01/23 09:20:20;;;;;;;15.23;4.10;;;6.10;45.30;;;;;;5039344;28;20486;-58
2024/01/23 09:22:46;;;;;;;9.70;3.47;;;6.10;50.30;;;;;;5051074;28;20462;-59
2024/01/23 09:25:13;;;;;;;9.77;2.87;;;6.10;48.70;;;;;;5050372;28;20493;-63
2024/01/23 09:27:39;;;;;;;10.70;3.57;;;6.10;49.60;;;;;;5046244;28;20459;-58
2024/01/23 09:30:08;;;;;;;15.00;3.23;;;6.20;51.10;;;;;;5044691;28;20491;-57
2024/01/23 09:32:36;;;;;;;10.50;3.13;;;6.20;49.80;;;;;;5046042;28;20489;-58
2024/01/23 09:35:02;;;;;;;13.67;3.27;;;6.30;57.20;;;;;;5026605;28;20486;-58
2024/01/23 09:37:29;;;;;;;12.83;4.43;;;6.40;58.10;;;;;;5014554;28;20572;-57
2024/01/23 09:39:56;;;;;;;12.13;3.87;;;6.40;54.10;;;;;;5025186;28;20507;-57
2024/01/23 09:42:24;;;;;;;17.23;4.37;;;6.50;60.20;;;;;;5027333;28;20482;-58
2024/01/23 09:44:53;;;;;;;17.53;4.97;;;6.60;68.00;;;;;;5030902;28;20545;-57
2024/01/23 09:47:20;;;;;;;7.70;3.30;;;6.60;67.50;;;;;;5025461;28;20463;-57
2024/01/23 09:49:49;;;;;;;20.37;4.47;;;6.60;60.10;;;;;;5028789;28;20482;-58
2024/01/23 09:52:18;;;;;;;8.53;3.63;;;6.60;66.80;;;;;;5030375;28;20521;-54
2024/01/23 09:54:44;;;;;;;20.90;4.70;;;6.60;65.10;;;;;;5030814;28;20512;-54
2024/01/23 09:57:12;;;;;;;15.70;3.87;;;6.60;68.60;;;;;;5040180;28;20488;-55
2024/01/23 09:59:39;;;;;;;12.37;4.03;;;6.60;67.70;;;;;;5035258;28;20479;-54
2024/01/23 10:02:08;;;;;;;23.50;3.70;;;6.70;71.00;;;;;;5047411;28;20474;-54
2024/01/23 10:04:36;;;;;;;10.23;3.90;;;6.70;68.70;;;;;;5043144;28;20504;-54
2024/01/23 10:07:08;;;;;;;15.57;4.27;;;6.70;71.70;;;;;;5046107;28;20446;-57
2024/01/23 10:09:34;;;;;;;14.83;3.73;;;6.80;72.20;;;;;;5046437;28;20493;-55
2024/01/23 10:12:01;;;;;;;7.90;3.10;;;6.80;73.90;;;;;;5041019;28;20748;-54
2024/01/23 10:14:28;;;;;;;18.03;4.13;;;6.80;67.60;;;;;;5027702;28;20537;-54
2024/01/23 10:16:55;;;;;;;17.33;4.10;;;6.80;69.30;;;;;;5027454;28;20455;-54
2024/01/23 10:19:22;;;;;;;12.03;3.60;;;6.80;72.00;;;;;;5031479;28;20942;-54
2024/01/23 10:21:48;;;;;;;15.40;4.00;;;6.80;72.60;;;;;;5022013;28;20467;-54
2024/01/23 10:24:16;;;;;;;13.27;4.17;;;6.80;71.10;;;;;;5029613;28;20458;-54
2024/01/23 10:26:46;;;;;;;17.77;4.40;;;6.90;76.30;;;;;;5029607;28;20493;-55
2024/01/23 10:29:13;;;;;;;18.93;5.53;;;6.90;75.50;;;;;;5028636;28;20493;-54
2024/01/23 10:31:40;;;;;;;18.70;4.60;;;7.00;80.90;;;;;;5025813;28;20861;-53
2024/01/23 10:34:11;;;;;;;17.90;4.43;;;7.10;82.00;;;;;;5024757;28;20961;-53
2024/01/23 10:36:37;;;;;;;13.90;3.20;;;7.20;85.30;;;;;;5028886;28;20470;-54
2024/01/23 10:39:04;;;;;;;11.07;4.37;;;7.30;89.70;;;;;;5026172;28;20459;-54
2024/01/23 10:41:34;;;;;;;19.50;4.73;;;7.30;89.80;;;;;;5026397;28;20527;-54
2024/01/23 10:44:02;;;;;;;12.30;3.80;;;7.40;92.20;;;;;;5028501;28;20459;-54
2024/01/23 10:46:29;;;;;;;17.10;4.20;;;7.40;90.30;;;;;;5029395;28;20524;-54
2024/01/23 10:48:56;;;;;;;18.60;4.30;;;7.40;92.50;;;;;;5025610;28;20461;-54
2024/01/23 10:51:28;;;;;;;14.57;3.93;;;7.50;91.10;;;;;;5019027;28;20499;-54
2024/01/23 10:54:01;;;;;;;18.83;4.50;;;7.50;95.70;;;;;;5025920;28;20513;-55
2024/01/23 10:56:29;;;;;;;11.00;3.53;;;7.50;96.80;;;;;;5025790;28;20530;-54
2024/01/23 10:59:01;;;;;;;14.77;4.20;;;7.50;92.20;;;;;;5028546;28;20494;-54
2024/01/23 11:01:32;;;;;;;16.80;3.63;;;7.60;95.20;;;;;;5028232;28;20463;-55
2024/01/23 11:04:00;;;;;;;19.43;5.83;;;7.60;96.70;;;;;;5029405;28;20458;-55
2024/01/23 11:06:30;;;;;;;15.10;4.70;;;7.60;96.30;;;;;;5027862;28;20459;-54
2024/01/23 11:09:03;;;;;;;14.57;3.97;;;7.50;95.00;;;;;;5026469;28;20470;-54
2024/01/23 11:11:36;;;;;;;18.70;4.37;;;7.60;94.90;;;;;;5023626;28;20581;-53
2024/01/23 11:14:12;;;;;;;13.90;3.47;;;7.60;95.50;;;;;;5027313;28;20548;-54
2024/01/23 11:16:39;;;;;;;17.50;4.47;;;7.70;93.70;;;;;;5028577;28;20466;-53
2024/01/23 11:19:06;;;;;;;19.73;5.07;;;8.00;99.90;;;;;;5028020;28;20532;-54
2024/01/23 11:21:32;;;;;;;11.43;3.20;;;8.00;99.90;;;;;;5027164;28;20509;-54
2024/01/23 11:24:00;;;;;;;12.60;4.70;;;8.20;99.90;;;;;;5026152;28;20469;-57
2024/01/23 11:26:27;;;;;;;16.07;4.37;;;8.10;99.90;;;;;;5028938;28;20459;-56
2024/01/23 11:28:55;;;;;;;17.73;4.47;;;8.30;99.90;;;;;;5023370;28;20505;-56
2024/01/23 11:31:25;;;;;;;18.07;3.77;;;8.50;99.90;;;;;;5026862;28;21030;-56
2024/01/23 11:33:53;;;;;;;14.53;3.83;;;8.50;99.90;;;;;;5028056;28;20467;-56
2024/01/23 11:36:23;;;;;;;15.47;3.77;;;8.70;99.90;;;;;;5025593;28;20471;-56
2024/01/23 11:38:50;;;;;;;11.23;3.60;;;8.70;99.90;;;;;;5026322;28;20984;-56
2024/01/23 11:41:22;;;;;;;18.50;3.80;;;8.60;99.90;;;;;;5021972;28;20482;-56
2024/01/23 11:43:49;;;;;;;13.57;4.53;;;8.50;99.90;;;;;;5026901;28;20460;-57
2024/01/23 11:46:18;;;;;;;26.87;4.70;;;8.20;99.90;;;;;;5028222;28;20443;-56
2024/01/23 11:48:48;;;;;;;18.43;5.77;;;8.10;99.90;;;;;;5033261;28;20450;-56
2024/01/23 11:51:16;;;;;;;18.90;4.73;;;8.00;99.90;;;;;;5028540;28;20482;-56
2024/01/23 11:53:43;;;;;;;14.90;4.63;;;7.90;99.90;;;;;;5034694;28;20474;-56
2024/01/23 11:56:10;;;;;;;24.10;4.37;;;7.90;99.90;;;;;;5034340;28;20471;-56
2024/01/23 11:58:37;;;;;;;19.70;5.33;;;7.90;99.90;;;;;;5028416;28;20477;-56
2024/01/23 12:01:05;;;;;;;16.10;4.37;;;7.90;99.90;;;;;;5039028;28;20455;-57
2024/01/23 12:03:32;;;;;;;23.57;4.77;;;8.00;99.90;;;;;;5035397;28;20917;-62
2024/01/23 12:06:00;;;;;;;20.80;4.43;;;8.00;99.90;;;;;;5049584;28;20439;-59
2024/01/23 12:08:26;;;;;;;30.03;6.23;;;8.00;99.90;;;;;;5053202;28;20443;-56
2024/01/23 12:10:53;;;;;;;26.70;4.83;;;7.90;99.90;;;;;;5038183;28;20482;-55
2024/01/23 12:13:22;;;;;;;15.93;5.23;;;7.80;99.90;;;;;;5037681;28;20443;-59
2024/01/23 12:15:49;;;;;;;20.97;5.67;;;7.80;99.90;;;;;;5037933;28;20439;-56
2024/01/23 12:18:20;;;;;;;20.17;5.27;;;7.90;99.90;;;;;;5039051;28;20439;-62
2024/01/23 12:20:48;;;;;;;20.43;5.03;;;7.90;99.90;;;;;;5033202;28;20479;-62
2024/01/23 12:23:16;;;;;;;15.10;4.23;;;8.00;99.90;;;;;;5029420;28;20491;-56
2024/01/23 12:25:43;;;;;;;15.80;4.93;;;8.00;99.90;;;;;;5030792;28;20458;-57
2024/01/23 12:28:10;;;;;;;17.33;6.00;;;8.00;99.90;;;;;;5037439;28;20516;-57
2024/01/23 12:30:37;;;;;;;25.40;7.57;;;7.90;99.90;;;;;;5034178;28;20514;-61
2024/01/23 12:33:04;;;;;;;22.80;6.10;;;7.90;99.90;;;;;;5032562;28;20865;-57
2024/01/23 12:35:31;;;;;;;31.73;15.67;;;7.90;99.90;;;;;;5031958;28;20463;-56
2024/01/23 12:37:58;;;;;;;19.50;5.83;;;7.90;99.90;;;;;;5035806;28;20467;-56
2024/01/23 12:40:26;;;;;;;15.77;5.90;;;7.90;99.90;;;;;;5037943;28;20478;-56
2024/01/23 12:42:53;;;;;;;16.00;5.27;;;7.90;99.90;;;;;;5035392;28;20462;-56
2024/01/23 12:45:20;;;;;;;14.10;4.47;;;7.90;99.90;;;;;;5034172;28;20898;-57
2024/01/23 12:47:49;;;;;;;17.70;5.13;;;7.90;99.90;;;;;;5034816;28;20462;-56
2024/01/23 12:50:19;;;;;;;20.27;5.90;;;7.90;99.90;;;;;;5031899;28;20537;-56
2024/01/23 12:52:46;;;;;;;23.40;4.83;;;8.00;99.90;;;;;;5029131;28;20462;-57